sensor_id;sensor_type;location;lat;lon;timestamp;temperature;humidity
46400;DHT22;32104;50.838;4.388;2022-10-31T00:00:21;16.40;99.90
46400;DHT22;32104;50.838;4.388;2022-10-31T00:02:47;16.50;99.90
46400;DHT22;32104;50.838;4.388;2022-10-31T00:05:12;16.50;99.90
46400;DHT22;32104;50.838;4.388;2022-10-31T00:07:38;16.50;99.90
46400;DHT22;32104;50.838;4.388;2022-10-31T00:10:04;16.40;99.90
46400;DHT22;32104;50.838;4.388;2022-10-31T00:12:29;16.50;99.90
46400;DHT22;32104;50.838;4.388;2022-10-31T00:14:55;16.30;99.90
46400;DHT22;32104;50.838;4.388;2022-10-31T00:17:20;16.10;99.90
46400;DHT22;32104;50.838;4.388;2022-10-31T00:19:46;16.00;99.90
46400;DHT22;32104;50.838;4.388;2022-10-31T00:22:12;15.90;99.90
46400;DHT22;32104;50.838;4.388;2022-10-31T00:24:37;16.00;99.90
46400;DHT22;32104;50.838;4.388;2022-10-31T00:27:03;16.00;99.90
46400;DHT22;32104;50.838;4.388;2022-10-31T00:29:28;16.30;99.90
46400;DHT22;32104;50.838;4.388;2022-10-31T00:31:54;16.30;99.90
46400;DHT22;32104;50.838;4.388;2022-10-31T00:34:19;16.40;99.90
46400;DHT22;32104;50.838;4.388;2022-10-31T00:36:45;16.30;99.90
46400;DHT22;32104;50.838;4.388;2022-10-31T00:39:11;16.30;99.90
46400;DHT22;32104;50.838;4.388;2022-10-31T00:41:36;16.30;99.90
46400;DHT22;32104;50.838;4.388;2022-10-31T00:44:02;16.20;99.90
46400;DHT22;32104;50.838;4.388;2022-10-31T00:46:27;16.20;99.90
46400;DHT22;32104;50.838;4.388;2022-10-31T00:48:53;16.20;99.90
46400;DHT22;32104;50.838;4.388;2022-10-31T00:51:18;16.10;99.90
46400;DHT22;32104;50.838;4.388;2022-10-31T00:53:44;16.00;99.90
46400;DHT22;32104;50.838;4.388;2022-10-31T00:56:09;16.00;99.90
46400;DHT22;32104;50.838;4.388;2022-10-31T00:58:35;16.00;99.90
46400;DHT22;32104;50.838;4.388;2022-10-31T01:01:01;15.90;99.90
46400;DHT22;32104;50.838;4.388;2022-10-31T01:03:27;15.80;99.90
46400;DHT22;32104;50.838;4.388;2022-10-31T01:08:25;15.80;99.90
46400;DHT22;32104;50.838;4.388;2022-10-31T01:10:59;15.80;99.90
46400;DHT22;32104;50.838;4.388;2022-10-31T01:13:24;15.90;99.90
46400;DHT22;32104;50.838;4.388;2022-10-31T01:15:54;15.70;99.90
46400;DHT22;32104;50.838;4.388;2022-10-31T01:18:20;15.80;99.90
46400;DHT22;32104;50.838;4.388;2022-10-31T01:20:45;15.80;99.90
46400;DHT22;32104;50.838;4.388;2022-10-31T01:23:11;15.90;99.90
46400;DHT22;32104;50.838;4.388;2022-10-31T01:25:36;15.80;99.90
46400;DHT22;32104;50.838;4.388;2022-10-31T01:28:02;15.90;99.90
46400;DHT22;32104;50.838;4.388;2022-10-31T01:30:27;15.80;99.90
46400;DHT22;32104;50.838;4.388;2022-10-31T01:32:53;15.80;99.90
46400;DHT22;32104;50.838;4.388;2022-10-31T01:35:18;15.80;99.90
46400;DHT22;32104;50.838;4.388;2022-10-31T01:37:44;15.70;99.90
46400;DHT22;32104;50.838;4.388;2022-10-31T01:40:09;15.70;99.90
46400;DHT22;32104;50.838;4.388;2022-10-31T01:42:36;15.60;99.90
46400;DHT22;32104;50.838;4.388;2022-10-31T01:45:03;15.60;99.90
46400;DHT22;32104;50.838;4.388;2022-10-31T01:47:35;15.60;99.90
46400;DHT22;32104;50.838;4.388;2022-10-31T01:50:46;15.60;99.90
46400;DHT22;32104;50.838;4.388;2022-10-31T01:52:54;15.60;99.90
46400;DHT22;32104;50.838;4.388;2022-10-31T01:55:23;15.60;99.90
46400;DHT22;32104;50.838;4.388;2022-10-31T01:57:53;15.60;99.90
46400;DHT22;32104;50.838;4.388;2022-10-31T02:00:20;15.50;99.90
46400;DHT22;32104;50.838;4.388;2022-10-31T02:02:49;15.50;99.90
46400;DHT22;32104;50.838;4.388;2022-10-31T02:46:43;15.30;99.90
46400;DHT22;32104;50.838;4.388;2022-10-31T03:23:56;15.20;99.90
46400;DHT22;32104;50.838;4.388;2022-10-31T03:26:49;15.10;99.90
46400;DHT22;32104;50.838;4.388;2022-10-31T03:33:00;15.00;99.90
46400;DHT22;32104;50.838;4.388;2022-10-31T03:39:17;14.90;99.90
46400;DHT22;32104;50.838;4.388;2022-10-31T03:42:24;14.80;99.90
46400;DHT22;32104;50.838;4.388;2022-10-31T03:48:51;14.60;99.90
46400;DHT22;32104;50.838;4.388;2022-10-31T03:58:08;14.40;99.90
46400;DHT22;32104;50.838;4.388;2022-10-31T04:03:44;14.30;99.90
46400;DHT22;32104;50.838;4.388;2022-10-31T04:06:57;14.40;99.90
46400;DHT22;32104;50.838;4.388;2022-10-31T04:10:20;14.50;99.90
46400;DHT22;32104;50.838;4.388;2022-10-31T04:13:29;14.40;99.90
46400;DHT22;32104;50.838;4.388;2022-10-31T04:16:35;14.60;99.90
46400;DHT22;32104;50.838;4.388;2022-10-31T04:19:24;14.50;99.90
46400;DHT22;32104;50.838;4.388;2022-10-31T04:22:33;14.30;99.90
46400;DHT22;32104;50.838;4.388;2022-10-31T04:28:29;14.20;99.90
46400;DHT22;32104;50.838;4.388;2022-10-31T04:31:33;14.10;99.90
46400;DHT22;32104;50.838;4.388;2022-10-31T04:34:39;14.00;99.90
46400;DHT22;32104;50.838;4.388;2022-10-31T04:43:49;13.80;99.90
46400;DHT22;32104;50.838;4.388;2022-10-31T04:47:14;13.70;99.90
46400;DHT22;32104;50.838;4.388;2022-10-31T04:53:32;13.80;99.90
46400;DHT22;32104;50.838;4.388;2022-10-31T04:56:39;13.90;99.90
46400;DHT22;32104;50.838;4.388;2022-10-31T04:59:27;13.80;99.90
46400;DHT22;32104;50.838;4.388;2022-10-31T05:02:15;13.70;99.90
46400;DHT22;32104;50.838;4.388;2022-10-31T05:05:37;13.70;99.90
46400;DHT22;32104;50.838;4.388;2022-10-31T05:08:42;13.70;99.90
46400;DHT22;32104;50.838;4.388;2022-10-31T05:11:16;13.70;99.90
46400;DHT22;32104;50.838;4.388;2022-10-31T05:17:35;13.60;99.90
46400;DHT22;32104;50.838;4.388;2022-10-31T05:59:37;13.90;99.90
46400;DHT22;32104;50.838;4.388;2022-10-31T07:34:34;14.70;99.90
46400;DHT22;32104;50.838;4.388;2022-10-31T07:37:00;14.70;99.90
46400;DHT22;32104;50.838;4.388;2022-10-31T07:39:25;14.70;99.90
46400;DHT22;32104;50.838;4.388;2022-10-31T07:41:51;14.80;99.90
46400;DHT22;32104;50.838;4.388;2022-10-31T07:44:16;14.80;99.90
46400;DHT22;32104;50.838;4.388;2022-10-31T19:31:41;17.10;99.90
46400;DHT22;32104;50.838;4.388;2022-10-31T19:34:36;17.20;99.90
46400;DHT22;32104;50.838;4.388;2022-10-31T19:37:17;17.10;99.90
46400;DHT22;32104;50.838;4.388;2022-10-31T19:39:50;17.00;99.90
46400;DHT22;32104;50.838;4.388;2022-10-31T19:42:45;16.90;99.90
46400;DHT22;32104;50.838;4.388;2022-10-31T19:45:18;16.80;99.90
46400;DHT22;32104;50.838;4.388;2022-10-31T19:47:56;16.80;99.90
46400;DHT22;32104;50.838;4.388;2022-10-31T19:50:28;16.80;99.90
46400;DHT22;32104;50.838;4.388;2022-10-31T19:53:03;16.80;99.90
46400;DHT22;32104;50.838;4.388;2022-10-31T19:55:41;16.90;99.90
46400;DHT22;32104;50.838;4.388;2022-10-31T19:58:13;16.90;99.90
46400;DHT22;32104;50.838;4.388;2022-10-31T20:00:59;17.00;99.90
46400;DHT22;32104;50.838;4.388;2022-10-31T20:03:37;17.10;99.90
46400;DHT22;32104;50.838;4.388;2022-10-31T20:06:32;16.90;99.90
46400;DHT22;32104;50.838;4.388;2022-10-31T20:09:04;17.10;99.90
46400;DHT22;32104;50.838;4.388;2022-10-31T20:11:35;17.30;99.90
46400;DHT22;32104;50.838;4.388;2022-10-31T20:14:12;17.20;99.90
46400;DHT22;32104;50.838;4.388;2022-10-31T20:16:43;17.10;99.90
46400;DHT22;32104;50.838;4.388;2022-10-31T20:19:11;17.20;99.90
46400;DHT22;32104;50.838;4.388;2022-10-31T20:21:41;17.30;99.90
46400;DHT22;32104;50.838;4.388;2022-10-31T20:24:09;17.30;99.90
46400;DHT22;32104;50.838;4.388;2022-10-31T20:26:43;17.30;99.90
46400;DHT22;32104;50.838;4.388;2022-10-31T20:29:19;17.60;99.90
46400;DHT22;32104;50.838;4.388;2022-10-31T20:32:11;17.70;99.90
46400;DHT22;32104;50.838;4.388;2022-10-31T20:34:38;17.90;99.90
46400;DHT22;32104;50.838;4.388;2022-10-31T20:37:04;17.90;99.90
46400;DHT22;32104;50.838;4.388;2022-10-31T20:39:34;18.00;99.90
46400;DHT22;32104;50.838;4.388;2022-10-31T20:42:25;17.80;99.90
46400;DHT22;32104;50.838;4.388;2022-10-31T20:45:12;17.70;99.90
46400;DHT22;32104;50.838;4.388;2022-10-31T20:47:39;17.80;99.90
46400;DHT22;32104;50.838;4.388;2022-10-31T20:53:22;17.80;99.90
46400;DHT22;32104;50.838;4.388;2022-10-31T20:56:21;18.00;99.90
46400;DHT22;32104;50.838;4.388;2022-10-31T20:58:50;18.00;99.90
46400;DHT22;32104;50.838;4.388;2022-10-31T21:01:34;18.00;99.90
46400;DHT22;32104;50.838;4.388;2022-10-31T21:04:10;18.00;99.90
46400;DHT22;32104;50.838;4.388;2022-10-31T21:06:44;18.10;99.90
46400;DHT22;32104;50.838;4.388;2022-10-31T21:09:18;18.10;99.90
46400;DHT22;32104;50.838;4.388;2022-10-31T21:11:55;18.00;99.90
46400;DHT22;32104;50.838;4.388;2022-10-31T21:14:26;17.90;99.90
46400;DHT22;32104;50.838;4.388;2022-10-31T21:16:54;18.00;99.90
46400;DHT22;32104;50.838;4.388;2022-10-31T21:19:19;18.10;99.90
46400;DHT22;32104;50.838;4.388;2022-10-31T21:21:48;18.20;99.90
46400;DHT22;32104;50.838;4.388;2022-10-31T21:24:33;18.30;99.90
46400;DHT22;32104;50.838;4.388;2022-10-31T21:27:30;18.30;99.90
46400;DHT22;32104;50.838;4.388;2022-10-31T21:30:29;18.30;99.90
46400;DHT22;32104;50.838;4.388;2022-10-31T21:32:58;18.20;99.90
46400;DHT22;32104;50.838;4.388;2022-10-31T21:35:31;18.10;99.90
46400;DHT22;32104;50.838;4.388;2022-10-31T21:37:59;18.10;99.90
46400;DHT22;32104;50.838;4.388;2022-10-31T21:40:32;18.10;99.90
46400;DHT22;32104;50.838;4.388;2022-10-31T21:43:05;18.00;99.90
46400;DHT22;32104;50.838;4.388;2022-10-31T21:45:32;18.10;99.90
46400;DHT22;32104;50.838;4.388;2022-10-31T21:48:05;18.10;99.90
46400;DHT22;32104;50.838;4.388;2022-10-31T21:50:50;18.20;99.90
46400;DHT22;32104;50.838;4.388;2022-10-31T21:53:16;18.30;99.90
46400;DHT22;32104;50.838;4.388;2022-10-31T21:56:07;18.30;99.90
46400;DHT22;32104;50.838;4.388;2022-10-31T21:58:39;18.30;99.90
46400;DHT22;32104;50.838;4.388;2022-10-31T22:01:45;18.20;99.90
46400;DHT22;32104;50.838;4.388;2022-10-31T22:04:11;18.20;99.90
46400;DHT22;32104;50.838;4.388;2022-10-31T22:07:03;18.00;99.90
46400;DHT22;32104;50.838;4.388;2022-10-31T22:12:43;18.10;99.90
46400;DHT22;32104;50.838;4.388;2022-10-31T22:15:45;18.10;99.90
46400;DHT22;32104;50.838;4.388;2022-10-31T22:18:25;18.10;99.90
46400;DHT22;32104;50.838;4.388;2022-10-31T22:21:16;18.10;99.90
46400;DHT22;32104;50.838;4.388;2022-10-31T22:23:57;18.20;99.90
46400;DHT22;32104;50.838;4.388;2022-10-31T22:26:24;18.10;99.90
46400;DHT22;32104;50.838;4.388;2022-10-31T22:28:52;18.10;99.90
46400;DHT22;32104;50.838;4.388;2022-10-31T22:31:30;18.10;99.90
46400;DHT22;32104;50.838;4.388;2022-10-31T22:34:02;18.20;99.90
46400;DHT22;32104;50.838;4.388;2022-10-31T22:36:35;18.10;99.90
46400;DHT22;32104;50.838;4.388;2022-10-31T22:39:01;18.20;99.90
46400;DHT22;32104;50.838;4.388;2022-10-31T22:41:29;18.10;99.90
46400;DHT22;32104;50.838;4.388;2022-10-31T22:44:03;18.10;99.90
46400;DHT22;32104;50.838;4.388;2022-10-31T22:46:34;18.00;99.90
46400;DHT22;32104;50.838;4.388;2022-10-31T22:49:05;17.80;99.90
46400;DHT22;32104;50.838;4.388;2022-10-31T22:51:38;17.90;99.90
46400;DHT22;32104;50.838;4.388;2022-10-31T22:54:21;17.80;99.90
46400;DHT22;32104;50.838;4.388;2022-10-31T22:56:59;17.70;99.90
46400;DHT22;32104;50.838;4.388;2022-10-31T22:59:25;17.80;99.90
46400;DHT22;32104;50.838;4.388;2022-10-31T23:01:51;17.80;99.90
46400;DHT22;32104;50.838;4.388;2022-10-31T23:04:18;17.60;99.90
46400;DHT22;32104;50.838;4.388;2022-10-31T23:06:47;17.80;99.90
46400;DHT22;32104;50.838;4.388;2022-10-31T23:09:39;17.90;99.90
46400;DHT22;32104;50.838;4.388;2022-10-31T23:12:37;17.80;99.90
46400;DHT22;32104;50.838;4.388;2022-10-31T23:15:29;17.80;99.90
46400;DHT22;32104;50.838;4.388;2022-10-31T23:17:59;17.60;99.90
46400;DHT22;32104;50.838;4.388;2022-10-31T23:20:28;17.70;99.90
46400;DHT22;32104;50.838;4.388;2022-10-31T23:23:10;17.70;99.90
46400;DHT22;32104;50.838;4.388;2022-10-31T23:25:36;17.70;99.90
46400;DHT22;32104;50.838;4.388;2022-10-31T23:28:43;17.90;99.90
46400;DHT22;32104;50.838;4.388;2022-10-31T23:31:45;17.80;99.90
46400;DHT22;32104;50.838;4.388;2022-10-31T23:34:26;17.70;99.90
46400;DHT22;32104;50.838;4.388;2022-10-31T23:37:01;18.00;99.90
46400;DHT22;32104;50.838;4.388;2022-10-31T23:39:27;18.00;99.90
46400;DHT22;32104;50.838;4.388;2022-10-31T23:41:55;17.90;99.90
46400;DHT22;32104;50.838;4.388;2022-10-31T23:44:21;18.00;99.90
46400;DHT22;32104;50.838;4.388;2022-10-31T23:46:57;18.10;99.90
46400;DHT22;32104;50.838;4.388;2022-10-31T23:49:34;18.00;99.90
46400;DHT22;32104;50.838;4.388;2022-10-31T23:52:00;18.10;99.90
46400;DHT22;32104;50.838;4.388;2022-10-31T23:54:31;18.10;99.90
46400;DHT22;32104;50.838;4.388;2022-10-31T23:57:24;18.10;99.90
46400;DHT22;32104;50.838;4.388;2022-10-31T23:59:59;18.10;99.90
